Time;durP1;ratioP1;P1;durP2;ratioP2;P2;SDS_P1;SDS_P2;PMS_P1;PMS_P2;Temp;Humidity;BMP_temperature;BMP_pressure;BME280_temperature;BME280_humidity;BME280_pressure;Samples;Min_cycle;Max_cycle;Signal;HPM_P1;HPM_P2
2022/07/22 00:00:27;;;;;;;5.28;3.58;;;;;;;;;;5084873;28;20253;-45
2022/07/22 00:03:03;;;;;;;5.47;3.80;;;;;;;;;;5084739;28;20207;-46
2022/07/22 00:05:30;;;;;;;7.25;3.55;;;;;;;;;;5082434;28;20196;-45
2022/07/22 00:07:57;;;;;;;6.05;3.45;;;;;;;;;;5084588;28;20199;-45
2022/07/22 00:10:24;;;;;;;8.85;3.47;;;;;;;;;;5086773;28;20198;-45
2022/07/22 00:12:51;;;;;;;8.70;4.28;;;;;;;;;;5085067;28;20223;-45
2022/07/22 00:15:18;;;;;;;7.88;3.88;;;;;;;;;;5085265;28;20201;-45
2022/07/22 00:17:45;;;;;;;10.30;3.33;;;;;;;;;;5086295;28;20191;-46
2022/07/22 00:20:12;;;;;;;10.45;3.72;;;;;;;;;;5084778;28;20593;-46
2022/07/22 00:22:39;;;;;;;10.05;3.30;;;;;;;;;;5084165;28;20223;-50
2022/07/22 00:25:06;;;;;;;8.82;3.42;;;;;;;;;;5084426;28;20195;-45
2022/07/22 00:27:33;;;;;;;15.02;3.78;;;;;;;;;;5085637;28;20213;-47
2022/07/22 00:30:00;;;;;;;10.13;3.13;;;;;;;;;;5086130;28;20197;-45
2022/07/22 00:32:27;;;;;;;10.63;4.53;;;;;;;;;;5065816;28;20709;-45
2022/07/22 00:34:55;;;;;;;14.10;3.22;;;;;;;;;;5085533;28;20281;-47
2022/07/22 00:37:22;;;;;;;13.98;3.15;;;;;;;;;;5084254;28;20211;-44
2022/07/22 00:39:49;;;;;;;11.63;3.70;;;;;;;;;;5080960;28;20234;-45
2022/07/22 00:42:17;;;;;;;11.63;4.05;;;;;;;;;;5067066;28;20198;-48
2022/07/22 00:44:49;;;;;;;11.95;3.80;;;;;;;;;;5081201;28;20261;-49
2022/07/22 00:47:17;;;;;;;9.02;4.25;;;;;;;;;;5084443;28;20198;-50
2022/07/22 00:49:44;;;;;;;8.48;3.55;;;;;;;;;;5085936;28;20198;-47
2022/07/22 00:52:12;;;;;;;7.38;3.90;;;;;;;;;;5083981;28;20195;-45
2022/07/22 00:54:39;;;;;;;7.85;3.58;;;;;;;;;;5083529;28;20234;-48
2022/07/22 00:57:06;;;;;;;12.00;3.60;;;;;;;;;;5085828;28;20306;-45
2022/07/22 00:59:33;;;;;;;11.35;3.80;;;;;;;;;;5084380;28;20195;-46
2022/07/22 01:02:01;;;;;;;10.30;3.70;;;;;;;;;;5083901;28;20206;-46
2022/07/22 01:04:28;;;;;;;16.02;4.10;;;;;;;;;;5080839;28;20261;-46
2022/07/22 01:06:55;;;;;;;12.02;4.18;;;;;;;;;;5084750;28;20199;-46
2022/07/22 01:09:22;;;;;;;10.93;4.13;;;;;;;;;;5084932;28;20210;-44
2022/07/22 01:11:49;;;;;;;10.40;4.28;;;;;;;;;;5080294;28;20195;-46
2022/07/22 01:14:16;;;;;;;7.32;3.75;;;;;;;;;;5083234;28;20652;-48
2022/07/22 01:16:44;;;;;;;13.52;3.72;;;;;;;;;;5085626;28;20187;-47
2022/07/22 01:19:16;;;;;;;9.55;3.65;;;;;;;;;;5082894;28;20264;-45
2022/07/22 01:21:43;;;;;;;9.35;3.92;;;;;;;;;;5082462;28;20199;-47
2022/07/22 01:24:10;;;;;;;13.55;4.75;;;;;;;;;;5084253;28;20545;-45
2022/07/22 01:26:37;;;;;;;5.93;4.53;;;;;;;;;;5084159;28;20204;-47
2022/07/22 01:29:04;;;;;;;10.77;4.15;;;;;;;;;;5082294;28;20215;-46
2022/07/22 01:31:31;;;;;;;12.05;4.88;;;;;;;;;;5085236;28;20199;-46
2022/07/22 01:33:59;;;;;;;16.02;4.22;;;;;;;;;;5084670;28;20222;-47
2022/07/22 01:36:26;;;;;;;17.27;4.18;;;;;;;;;;5082475;28;20270;-45
2022/07/22 01:38:54;;;;;;;11.57;4.28;;;;;;;;;;5083651;28;20199;-46
2022/07/22 01:41:21;;;;;;;21.48;5.20;;;;;;;;;;5085265;28;20187;-45
2022/07/22 01:43:48;;;;;;;13.27;5.00;;;;;;;;;;5082664;28;20258;-46
2022/07/22 01:46:18;;;;;;;12.73;4.63;;;;;;;;;;5083122;28;20205;-46
2022/07/22 01:48:45;;;;;;;22.63;5.30;;;;;;;;;;5084486;28;20191;-47
2022/07/22 01:51:12;;;;;;;18.73;4.60;;;;;;;;;;5083176;28;20253;-46
2022/07/22 01:53:39;;;;;;;20.63;5.00;;;;;;;;;;5082558;28;20222;-45
2022/07/22 01:56:06;;;;;;;25.80;4.70;;;;;;;;;;5084150;28;20675;-46
2022/07/22 01:58:39;;;;;;;28.30;5.03;;;;;;;;;;5083455;28;20223;-47
2022/07/22 02:01:08;;;;;;;25.83;4.63;;;;;;;;;;5081544;28;20256;-47
2022/07/22 02:03:35;;;;;;;21.63;4.57;;;;;;;;;;5083195;28;20199;-47
2022/07/22 02:06:03;;;;;;;22.08;4.85;;;;;;;;;;5085162;28;20215;-46
2022/07/22 02:08:33;;;;;;;14.65;4.45;;;;;;;;;;5080405;28;20265;-46
2022/07/22 02:11:09;;;;;;;16.23;4.53;;;;;;;;;;5079417;28;20202;-47
2022/07/22 02:13:47;;;;;;;11.40;4.70;;;;;;;;;;5082036;28;20235;-45
2022/07/22 02:16:15;;;;;;;18.52;4.72;;;;;;;;;;5083042;28;20195;-47
2022/07/22 02:18:47;;;;;;;11.90;5.25;;;;;;;;;;5083839;28;20190;-44
2022/07/22 02:21:14;;;;;;;15.30;5.57;;;;;;;;;;5082829;28;20209;-46
2022/07/22 02:23:41;;;;;;;16.17;5.90;;;;;;;;;;5083100;28;20264;-46
2022/07/22 02:26:09;;;;;;;12.80;6.05;;;;;;;;;;5078553;28;20251;-46
2022/07/22 02:28:37;;;;;;;14.73;7.05;;;;;;;;;;5083078;28;20196;-47
2022/07/22 02:31:04;;;;;;;14.65;5.05;;;;;;;;;;5084337;28;20210;-47
2022/07/22 02:33:32;;;;;;;37.72;5.97;;;;;;;;;;5086716;28;20246;-45
2022/07/22 02:36:00;;;;;;;27.55;5.30;;;;;;;;;;5086869;28;20536;-44
2022/07/22 02:38:27;;;;;;;37.50;6.78;;;;;;;;;;5085000;28;20198;-45
2022/07/22 02:40:54;;;;;;;42.17;5.45;;;;;;;;;;5086695;28;20195;-45
2022/07/22 02:43:21;;;;;;;42.22;5.78;;;;;;;;;;5087769;28;20659;-47
2022/07/22 02:45:50;;;;;;;39.13;5.68;;;;;;;;;;5082915;28;20199;-45
2022/07/22 02:48:18;;;;;;;25.95;5.53;;;;;;;;;;5085570;28;20202;-45
2022/07/22 02:50:47;;;;;;;41.00;5.40;;;;;;;;;;5087248;28;20195;-45
2022/07/22 02:53:19;;;;;;;29.55;5.30;;;;;;;;;;5087253;28;20190;-46
2022/07/22 02:55:46;;;;;;;25.60;5.05;;;;;;;;;;5086853;28;20198;-46
2022/07/22 02:58:13;;;;;;;22.92;4.38;;;;;;;;;;5085523;28;20640;-49
2022/07/22 03:00:42;;;;;;;12.80;5.43;;;;;;;;;;5085079;28;20195;-47
2022/07/22 03:03:09;;;;;;;20.30;4.75;;;;;;;;;;5083375;28;20555;-45
2022/07/22 03:05:36;;;;;;;16.45;4.95;;;;;;;;;;5086879;28;20203;-47
2022/07/22 03:08:23;;;;;;;20.30;4.78;;;;;;;;;;5087100;28;20672;-46
2022/07/22 03:10:51;;;;;;;24.92;4.75;;;;;;;;;;5085204;28;20191;-44
2022/07/22 03:13:19;;;;;;;20.58;4.78;;;;;;;;;;5085207;28;20248;-45
2022/07/22 03:15:46;;;;;;;13.00;5.30;;;;;;;;;;5086689;28;20210;-45
2022/07/22 03:18:14;;;;;;;25.98;5.15;;;;;;;;;;5085759;28;20252;-47
2022/07/22 03:20:41;;;;;;;17.63;5.03;;;;;;;;;;5085137;28;20202;-47
2022/07/22 03:23:08;;;;;;;18.08;4.80;;;;;;;;;;5082157;28;20225;-45
2022/07/22 03:25:38;;;;;;;14.73;4.93;;;;;;;;;;5085188;28;20213;-45
2022/07/22 03:28:06;;;;;;;19.95;4.53;;;;;;;;;;5087535;28;20205;-46
2022/07/22 03:30:33;;;;;;;17.52;5.25;;;;;;;;;;5085223;28;20282;-45
2022/07/22 03:33:01;;;;;;;17.15;4.95;;;;;;;;;;5084565;28;20206;-45
2022/07/22 03:35:31;;;;;;;27.33;5.03;;;;;;;;;;5083511;28;20356;-45
2022/07/22 03:37:58;;;;;;;20.00;6.00;;;;;;;;;;5085196;28;20191;-47
2022/07/22 03:40:27;;;;;;;30.00;6.53;;;;;;;;;;5086263;28;20201;-45
2022/07/22 03:42:56;;;;;;;24.02;5.72;;;;;;;;;;5082873;28;20195;-45
2022/07/22 03:45:23;;;;;;;13.20;5.45;;;;;;;;;;5084608;28;20268;-46
2022/07/22 03:47:54;;;;;;;18.45;5.60;;;;;;;;;;5084741;28;20261;-45
2022/07/22 03:50:24;;;;;;;25.58;5.28;;;;;;;;;;5084367;28;20196;-44
2022/07/22 03:52:51;;;;;;;19.52;5.63;;;;;;;;;;5085558;28;20704;-45
2022/07/22 03:55:18;;;;;;;20.05;5.55;;;;;;;;;;5085566;28;20215;-46
2022/07/22 03:57:49;;;;;;;19.20;5.72;;;;;;;;;;5081553;28;20243;-46
2022/07/22 04:00:22;;;;;;;25.90;6.03;;;;;;;;;;5084109;28;20248;-44
2022/07/22 04:02:49;;;;;;;15.55;5.80;;;;;;;;;;5080846;28;20257;-48
2022/07/22 04:05:30;;;;;;;14.52;6.45;;;;;;;;;;5082375;28;20214;-45
2022/07/22 04:07:57;;;;;;;10.07;6.35;;;;;;;;;;5084284;28;20334;-47
2022/07/22 04:10:24;;;;;;;10.15;6.82;;;;;;;;;;5082375;28;20246;-45
2022/07/22 04:12:52;;;;;;;19.17;7.93;;;;;;;;;;5084271;28;20227;-45
2022/07/22 04:15:38;;;;;;;13.30;6.53;;;;;;;;;;5080323;28;20662;-47
2022/07/22 04:18:05;;;;;;;20.08;8.32;;;;;;;;;;5084290;28;20222;-47
2022/07/22 04:20:32;;;;;;;19.23;6.75;;;;;;;;;;5084165;28;20244;-45
2022/07/22 04:23:17;;;;;;;14.75;7.45;;;;;;;;;;5083233;28;20620;-48
2022/07/22 04:25:48;;;;;;;17.83;8.00;;;;;;;;;;5080064;28;20314;-46
2022/07/22 04:28:15;;;;;;;15.15;8.32;;;;;;;;;;5082944;28;20646;-46
2022/07/22 04:30:42;;;;;;;22.25;8.25;;;;;;;;;;5084706;28;20684;-45
2022/07/22 04:33:09;;;;;;;16.08;8.32;;;;;;;;;;5082336;28;20294;-46
2022/07/22 04:35:36;;;;;;;15.70;9.05;;;;;;;;;;5080933;28;20258;-45
2022/07/22 04:38:17;;;;;;;12.88;7.03;;;;;;;;;;5083316;28;20266;-46
2022/07/22 04:40:54;;;;;;;12.15;6.47;;;;;;;;;;5081432;28;20306;-45
2022/07/22 04:43:23;;;;;;;12.60;6.75;;;;;;;;;;5082342;28;20578;-46
2022/07/22 04:45:50;;;;;;;13.43;6.97;;;;;;;;;;5084552;28;20214;-47
2022/07/22 04:48:18;;;;;;;14.50;7.18;;;;;;;;;;5084311;28;20218;-46
2022/07/22 04:50:46;;;;;;;11.60;7.88;;;;;;;;;;5082157;28;20227;-48
2022/07/22 04:53:13;;;;;;;11.50;7.90;;;;;;;;;;5083427;28;20215;-46
2022/07/22 04:55:41;;;;;;;15.80;8.48;;;;;;;;;;5083651;28;20316;-45
2022/07/22 04:58:08;;;;;;;14.05;8.00;;;;;;;;;;5077339;28;20677;-54
2022/07/22 05:00:44;;;;;;;14.35;7.50;;;;;;;;;;5079563;28;20234;-48
2022/07/22 05:03:11;;;;;;;13.02;6.70;;;;;;;;;;5075919;28;20675;-50
2022/07/22 05:05:40;;;;;;;8.60;6.82;;;;;;;;;;5076134;28;20654;-48
2022/07/22 05:08:07;;;;;;;10.05;6.65;;;;;;;;;;5076194;28;20622;-52
2022/07/22 05:10:35;;;;;;;9.25;6.35;;;;;;;;;;5080399;28;20222;-47
2022/07/22 05:13:03;;;;;;;8.93;5.65;;;;;;;;;;5076744;28;20211;-48
2022/07/22 05:15:32;;;;;;;11.50;6.00;;;;;;;;;;5079973;28;20238;-46
2022/07/22 05:18:00;;;;;;;7.93;5.95;;;;;;;;;;5080941;28;20215;-50
2022/07/22 05:20:30;;;;;;;10.57;5.80;;;;;;;;;;5075461;28;20219;-46
2022/07/22 05:22:58;;;;;;;15.75;6.15;;;;;;;;;;5077000;28;20211;-47
2022/07/22 05:25:29;;;;;;;16.15;5.85;;;;;;;;;;5079185;28;20219;-49
2022/07/22 05:27:57;;;;;;;12.82;5.85;;;;;;;;;;5082540;28;20231;-48
2022/07/22 05:30:29;;;;;;;25.00;7.50;;;;;;;;;;5078666;28;20211;-49
2022/07/22 05:32:57;;;;;;;11.57;5.80;;;;;;;;;;5082151;28;20692;-49
2022/07/22 05:35:42;;;;;;;11.70;5.18;;;;;;;;;;5082083;28;20605;-52
2022/07/22 05:38:10;;;;;;;8.68;4.95;;;;;;;;;;5079265;28;20276;-47
2022/07/22 05:40:37;;;;;;;9.10;5.00;;;;;;;;;;5083943;28;20219;-49
2022/07/22 05:43:04;;;;;;;7.35;4.82;;;;;;;;;;5074766;28;20566;-51
2022/07/22 05:45:32;;;;;;;10.85;4.88;;;;;;;;;;5071441;28;20246;-50
2022/07/22 05:47:59;;;;;;;9.93;4.28;;;;;;;;;;5071232;28;20215;-49
2022/07/22 05:50:26;;;;;;;8.32;4.32;;;;;;;;;;5087723;28;20219;-49
2022/07/22 05:52:55;;;;;;;11.77;4.60;;;;;;;;;;5082512;28;20223;-51
2022/07/22 05:55:22;;;;;;;9.77;4.10;;;;;;;;;;5082943;28;20313;-53
2022/07/22 05:57:52;;;;;;;10.32;4.15;;;;;;;;;;5079473;28;20242;-50
2022/07/22 06:00:19;;;;;;;9.18;4.38;;;;;;;;;;5084834;28;20662;-50
2022/07/22 06:02:46;;;;;;;10.63;4.10;;;;;;;;;;5083508;28;20211;-53
2022/07/22 06:05:18;;;;;;;6.18;3.85;;;;;;;;;;5084391;28;20226;-48
2022/07/22 06:08:04;;;;;;;10.13;4.22;;;;;;;;;;5081722;28;20214;-49
2022/07/22 06:10:40;;;;;;;6.80;3.95;;;;;;;;;;5086369;28;20187;-48
2022/07/22 06:13:07;;;;;;;8.32;3.72;;;;;;;;;;5088114;28;20200;-47
2022/07/22 06:15:34;;;;;;;9.15;3.92;;;;;;;;;;5084743;28;20257;-47
2022/07/22 06:18:02;;;;;;;13.00;4.05;;;;;;;;;;5069840;28;20298;-48
2022/07/22 06:20:30;;;;;;;8.95;3.67;;;;;;;;;;5077506;28;20203;-54
2022/07/22 06:22:57;;;;;;;16.38;4.45;;;;;;;;;;5076243;28;20203;-54
2022/07/22 06:25:24;;;;;;;39.47;5.78;;;;;;;;;;5085330;28;20928;-57
2022/07/22 06:28:21;;;;;;;10.65;4.20;;;;;;;;;;5096536;28;20183;-56
2022/07/22 06:30:48;;;;;;;7.20;3.42;;;;;;;;;;5097645;28;20268;-55
2022/07/22 06:33:17;;;;;;;9.95;4.00;;;;;;;;;;5096265;28;20202;-55
2022/07/22 06:35:44;;;;;;;12.75;4.68;;;;;;;;;;5096527;28;20229;-54
2022/07/22 06:38:11;;;;;;;12.25;3.80;;;;;;;;;;5096835;28;20198;-56
2022/07/22 06:41:21;;;;;;;7.88;3.88;;;;;;;;;;5079151;28;20652;-56
2022/07/22 06:44:14;;;;;;;14.13;3.85;;;;;;;;;;5060871;28;20210;-55
2022/07/22 06:47:11;;;;;;;7.28;3.60;;;;;;;;;;5079536;28;20491;-56
2022/07/22 06:49:38;;;;;;;9.50;3.92;;;;;;;;;;5079069;28;20199;-57
2022/07/22 06:52:05;;;;;;;9.90;4.63;;;;;;;;;;5077871;28;20203;-55
2022/07/22 06:54:32;;;;;;;11.30;3.50;;;;;;;;;;5077877;28;20210;-53
2022/07/22 06:57:01;;;;;;;5.78;3.50;;;;;;;;;;5076673;28;20674;-55
2022/07/22 06:59:32;;;;;;;6.38;3.38;;;;;;;;;;5077620;28;20183;-55
2022/07/22 07:02:04;;;;;;;9.30;3.67;;;;;;;;;;5081084;28;20633;-53
2022/07/22 07:04:36;;;;;;;8.65;3.95;;;;;;;;;;5092428;28;20214;-56
2022/07/22 07:07:03;;;;;;;10.15;3.80;;;;;;;;;;5096653;28;20218;-56
2022/07/22 07:09:31;;;;;;;14.65;4.85;;;;;;;;;;5096192;28;20199;-54
2022/07/22 07:12:10;;;;;;;9.13;4.10;;;;;;;;;;5095735;28;20214;-55
2022/07/22 07:14:57;;;;;;;8.25;3.33;;;;;;;;;;5096284;28;20214;-50
2022/07/22 07:17:45;;;;;;;8.63;3.00;;;;;;;;;;5093169;28;20528;-47
2022/07/22 07:20:15;;;;;;;8.48;3.15;;;;;;;;;;5071720;28;20203;-56
2022/07/22 07:22:42;;;;;;;6.75;3.45;;;;;;;;;;5075257;28;20290;-53
2022/07/22 07:25:09;;;;;;;5.72;3.83;;;;;;;;;;5075935;28;20241;-50
2022/07/22 07:27:52;;;;;;;8.80;3.55;;;;;;;;;;5076894;28;20203;-55
2022/07/22 07:30:26;;;;;;;7.38;3.50;;;;;;;;;;5075961;28;20187;-51
2022/07/22 07:32:53;;;;;;;7.63;3.67;;;;;;;;;;5077053;28;20199;-50
2022/07/22 07:35:21;;;;;;;13.80;3.55;;;;;;;;;;5075411;28;20227;-55
2022/07/22 07:37:54;;;;;;;8.13;3.50;;;;;;;;;;5075120;28;20285;-54
2022/07/22 07:40:21;;;;;;;8.20;3.15;;;;;;;;;;5074757;28;20514;-54
2022/07/22 07:42:50;;;;;;;7.82;3.63;;;;;;;;;;5074977;28;20699;-54
2022/07/22 07:45:29;;;;;;;9.07;3.30;;;;;;;;;;5075379;28;20257;-56
2022/07/22 07:47:56;;;;;;;14.18;4.53;;;;;;;;;;5075141;28;20602;-55
2022/07/22 07:50:23;;;;;;;6.13;3.35;;;;;;;;;;5075960;28;20532;-54
2022/07/22 07:52:51;;;;;;;13.48;3.30;;;;;;;;;;5080472;28;20195;-48
2022/07/22 07:55:21;;;;;;;8.95;3.35;;;;;;;;;;5094751;28;20222;-46
2022/07/22 07:57:49;;;;;;;8.93;3.35;;;;;;;;;;5094558;28;20238;-51
2022/07/22 08:00:22;;;;;;;16.85;6.68;;;;;;;;;;5094714;28;20207;-48
2022/07/22 08:02:50;;;;;;;13.98;3.67;;;;;;;;;;5094769;28;20191;-48
2022/07/22 08:05:21;;;;;;;7.32;3.05;;;;;;;;;;5094756;28;20210;-46
2022/07/22 08:07:50;;;;;;;5.63;2.67;;;;;;;;;;5094636;28;20626;-49
2022/07/22 08:10:19;;;;;;;9.63;3.08;;;;;;;;;;5094389;28;20531;-47
2022/07/22 08:13:21;;;;;;;10.13;3.45;;;;;;;;;;5095074;28;20210;-51
2022/07/22 08:16:08;;;;;;;9.30;3.53;;;;;;;;;;5087705;28;20223;-47
2022/07/22 08:18:37;;;;;;;5.80;3.30;;;;;;;;;;5094292;28;20198;-48
2022/07/22 08:21:04;;;;;;;24.33;7.63;;;;;;;;;;5094371;28;20195;-47
2022/07/22 08:23:40;;;;;;;19.48;4.10;;;;;;;;;;5094507;28;20209;-48
2022/07/22 08:26:07;;;;;;;7.55;3.47;;;;;;;;;;5091932;28;20293;-53
2022/07/22 08:28:34;;;;;;;10.63;3.30;;;;;;;;;;5073219;28;20206;-54
2022/07/22 08:31:01;;;;;;;8.20;3.10;;;;;;;;;;5073894;28;20222;-53
2022/07/22 08:33:31;;;;;;;6.35;3.25;;;;;;;;;;5073872;28;20199;-52
2022/07/22 08:35:58;;;;;;;5.10;2.88;;;;;;;;;;5073454;28;20307;-53
2022/07/22 08:38:26;;;;;;;8.27;3.22;;;;;;;;;;5073709;28;20215;-51
2022/07/22 08:40:55;;;;;;;4.85;2.83;;;;;;;;;;5073200;28;20203;-53
2022/07/22 08:43:31;;;;;;;5.00;3.05;;;;;;;;;;5073790;28;20188;-53
2022/07/22 08:45:58;;;;;;;8.43;3.08;;;;;;;;;;5056946;28;20353;-55
2022/07/22 08:48:29;;;;;;;7.47;3.00;;;;;;;;;;5073812;28;20183;-53
2022/07/22 08:51:14;;;;;;;7.85;2.88;;;;;;;;;;5059643;28;20192;-51
2022/07/22 08:53:59;;;;;;;6.90;2.92;;;;;;;;;;5074027;28;20705;-52
2022/07/22 08:56:26;;;;;;;7.22;2.83;;;;;;;;;;5072703;28;20281;-49
2022/07/22 08:58:54;;;;;;;7.28;2.78;;;;;;;;;;5073209;28;20183;-53
2022/07/22 09:01:21;;;;;;;5.50;2.67;;;;;;;;;;5073318;28;20199;-54
2022/07/22 09:03:55;;;;;;;6.68;3.00;;;;;;;;;;5073654;28;20187;-52
2022/07/22 09:06:33;;;;;;;8.98;2.97;;;;;;;;;;5073446;28;20179;-50
2022/07/22 09:09:04;;;;;;;10.85;4.00;;;;;;;;;;5073467;28;20188;-54
2022/07/22 09:12:06;;;;;;;5.57;2.95;;;;;;;;;;5068725;28;20225;-53
2022/07/22 09:15:00;;;;;;;8.35;3.28;;;;;;;;;;5072760;28;20207;-52
2022/07/22 09:17:35;;;;;;;20.70;7.00;;;;;;;;;;5072813;28;20532;-52
2022/07/22 09:20:43;;;;;;;6.57;3.38;;;;;;;;;;5031924;28;20638;-53
2022/07/22 09:23:39;;;;;;;7.63;2.95;;;;;;;;;;5015620;28;20197;-54
2022/07/22 09:26:06;;;;;;;9.98;2.92;;;;;;;;;;5060921;28;20215;-54
2022/07/22 09:29:12;;;;;;;5.68;2.95;;;;;;;;;;5073447;28;20199;-53
2022/07/22 09:32:02;;;;;;;12.57;3.00;;;;;;;;;;5072954;28;20187;-53
2022/07/22 09:34:43;;;;;;;13.38;2.40;;;;;;;;;;5072962;28;20592;-53
2022/07/22 09:37:19;;;;;;;7.65;2.60;;;;;;;;;;5057984;28;20567;-52
2022/07/22 09:39:47;;;;;;;9.00;2.78;;;;;;;;;;5079600;28;20223;-52
2022/07/22 09:42:16;;;;;;;5.95;2.55;;;;;;;;;;5079612;28;20209;-54
2022/07/22 09:44:46;;;;;;;8.30;2.60;;;;;;;;;;5086520;28;20202;-53
2022/07/22 09:47:28;;;;;;;8.73;2.85;;;;;;;;;;5081010;28;20222;-54
2022/07/22 09:50:23;;;;;;;10.15;2.97;;;;;;;;;;5098141;28;20190;-54
2022/07/22 09:53:08;;;;;;;8.77;3.20;;;;;;;;;;5094585;28;20508;-57
2022/07/22 09:55:40;;;;;;;10.10;2.60;;;;;;;;;;5080516;28;20261;-57
2022/07/22 09:58:08;;;;;;;7.95;2.90;;;;;;;;;;5076610;28;20234;-55
2022/07/22 10:00:36;;;;;;;3.63;2.65;;;;;;;;;;5060601;28;20209;-57
2022/07/22 10:03:11;;;;;;;7.05;3.20;;;;;;;;;;5092104;28;20207;-52
2022/07/22 10:05:40;;;;;;;14.38;3.03;;;;;;;;;;5097851;28;20230;-52
2022/07/22 10:08:09;;;;;;;6.10;2.65;;;;;;;;;;5097843;28;20548;-49
2022/07/22 10:10:37;;;;;;;5.93;2.90;;;;;;;;;;5096954;28;20213;-51
2022/07/22 10:13:05;;;;;;;6.07;2.70;;;;;;;;;;5081930;28;20216;-49
2022/07/22 10:15:34;;;;;;;9.85;3.00;;;;;;;;;;5075612;28;20227;-51
2022/07/22 10:18:08;;;;;;;7.30;2.75;;;;;;;;;;5078220;28;20233;-55
2022/07/22 10:20:37;;;;;;;9.13;2.42;;;;;;;;;;5076741;28;20268;-55
2022/07/22 10:23:09;;;;;;;8.85;2.83;;;;;;;;;;5076258;28;20238;-55
2022/07/22 10:26:01;;;;;;;6.15;3.13;;;;;;;;;;5084866;28;20317;-51
2022/07/22 10:28:34;;;;;;;12.40;3.05;;;;;;;;;;5079096;28;20289;-45
2022/07/22 10:31:23;;;;;;;7.68;2.90;;;;;;;;;;5086181;28;20301;-52
2022/07/22 10:33:53;;;;;;;10.60;3.10;;;;;;;;;;5089008;28;20218;-50
2022/07/22 10:36:32;;;;;;;14.95;3.35;;;;;;;;;;5083805;28;20650;-49
2022/07/22 10:39:10;;;;;;;5.78;2.92;;;;;;;;;;5095372;28;20664;-52
2022/07/22 10:41:41;;;;;;;9.68;3.00;;;;;;;;;;5096779;28;20350;-52
2022/07/22 10:44:46;;;;;;;5.90;2.70;;;;;;;;;;5096851;28;20604;-54
2022/07/22 10:47:56;;;;;;;8.23;3.10;;;;;;;;;;5097034;28;20236;-54
2022/07/22 10:50:35;;;;;;;10.32;2.92;;;;;;;;;;5096812;28;20226;-53
2022/07/22 10:53:04;;;;;;;5.38;2.85;;;;;;;;;;5097121;28;20222;-52
2022/07/22 10:55:32;;;;;;;4.63;2.47;;;;;;;;;;5096671;28;20225;-53
2022/07/22 10:57:59;;;;;;;5.55;2.95;;;;;;;;;;5077231;28;20223;-54
2022/07/22 11:00:27;;;;;;;8.18;3.30;;;;;;;;;;5077157;28;20210;-56
2022/07/22 11:02:54;;;;;;;5.65;2.70;;;;;;;;;;5077507;28;20269;-57
2022/07/22 11:05:30;;;;;;;9.98;3.28;;;;;;;;;;5077048;28;20199;-57
2022/07/22 11:07:57;;;;;;;12.30;3.10;;;;;;;;;;5077491;28;20188;-57
2022/07/22 11:10:24;;;;;;;13.38;3.30;;;;;;;;;;5077362;28;20211;-57
2022/07/22 11:12:51;;;;;;;5.07;2.80;;;;;;;;;;5077215;28;20257;-57
2022/07/22 11:15:18;;;;;;;10.27;3.05;;;;;;;;;;5077844;28;20207;-57
2022/07/22 11:17:45;;;;;;;8.02;3.03;;;;;;;;;;5071007;28;20220;-56
2022/07/22 11:20:13;;;;;;;7.28;2.70;;;;;;;;;;5057474;28;20265;-57
2022/07/22 11:22:40;;;;;;;6.68;3.10;;;;;;;;;;5056981;28;20203;-56
2022/07/22 11:25:09;;;;;;;4.47;2.78;;;;;;;;;;5055135;28;20199;-55
2022/07/22 11:27:36;;;;;;;5.45;3.30;;;;;;;;;;5062529;28;20268;-54
2022/07/22 11:30:06;;;;;;;4.90;3.17;;;;;;;;;;5089619;28;20211;-56
2022/07/22 11:32:41;;;;;;;13.93;3.47;;;;;;;;;;5096837;28;20212;-51
2022/07/22 11:35:12;;;;;;;6.65;2.97;;;;;;;;;;5097280;28;20190;-55
2022/07/22 11:37:39;;;;;;;5.35;2.95;;;;;;;;;;5096940;28;20229;-56
2022/07/22 11:40:08;;;;;;;11.40;3.20;;;;;;;;;;5096803;28;20543;-56
2022/07/22 11:42:35;;;;;;;11.75;2.90;;;;;;;;;;5096886;28;20203;-56
2022/07/22 11:45:03;;;;;;;9.80;3.03;;;;;;;;;;5090992;28;20525;-49
2022/07/22 11:47:30;;;;;;;8.75;3.10;;;;;;;;;;5079196;28;20200;-57
2022/07/22 11:49:58;;;;;;;6.95;3.03;;;;;;;;;;5069622;28;20261;-52
2022/07/22 11:52:24;;;;;;;32.40;4.35;;;;;;;;;;5075563;28;20215;-57
2022/07/22 11:54:51;;;;;;;8.05;2.90;;;;;;;;;;5075118;28;20223;-56
2022/07/22 11:57:19;;;;;;;11.77;3.17;;;;;;;;;;5075324;28;20246;-57
2022/07/22 11:59:46;;;;;;;9.55;3.20;;;;;;;;;;5074786;28;20223;-52
2022/07/22 12:02:13;;;;;;;5.63;2.50;;;;;;;;;;5073837;28;20644;-46
2022/07/22 12:04:42;;;;;;;7.22;3.20;;;;;;;;;;5073865;28;20247;-53
2022/07/22 12:07:11;;;;;;;5.93;3.17;;;;;;;;;;5074105;28;20215;-57
2022/07/22 12:09:41;;;;;;;6.82;3.42;;;;;;;;;;5074433;28;20705;-56
2022/07/22 12:12:08;;;;;;;9.05;3.00;;;;;;;;;;5076675;28;20215;-56
2022/07/22 12:14:35;;;;;;;6.53;3.50;;;;;;;;;;5074202;28;20676;-57
2022/07/22 12:17:09;;;;;;;8.63;3.20;;;;;;;;;;5074318;28;20812;-56
2022/07/22 12:19:38;;;;;;;8.80;3.10;;;;;;;;;;5074062;28;20548;-56
2022/07/22 12:22:13;;;;;;;6.53;3.03;;;;;;;;;;5073743;28;20211;-56
2022/07/22 12:24:43;;;;;;;8.05;3.65;;;;;;;;;;5074876;28;20218;-56
2022/07/22 12:27:15;;;;;;;5.88;3.20;;;;;;;;;;5074283;28;20680;-56
2022/07/22 12:29:44;;;;;;;6.47;2.90;;;;;;;;;;5074670;28;20223;-56
2022/07/22 12:32:15;;;;;;;10.48;3.10;;;;;;;;;;5074283;28;20258;-56
2022/07/22 12:34:47;;;;;;;7.35;3.63;;;;;;;;;;5073728;28;20234;-56
2022/07/22 12:37:19;;;;;;;8.82;3.25;;;;;;;;;;5074367;28;20231;-55
2022/07/22 12:40:21;;;;;;;8.00;3.17;;;;;;;;;;5074139;28;20235;-56
2022/07/22 12:43:08;;;;;;;10.75;3.10;;;;;;;;;;5073957;28;20740;-56
2022/07/22 12:45:37;;;;;;;9.70;2.92;;;;;;;;;;5073648;28;20227;-56
2022/07/22 12:48:03;;;;;;;10.40;2.80;;;;;;;;;;5073755;28;20289;-56
2022/07/22 12:50:40;;;;;;;16.35;2.95;;;;;;;;;;5073474;28;20227;-53
2022/07/22 12:53:12;;;;;;;10.82;3.30;;;;;;;;;;5074363;28;20219;-55
2022/07/22 12:55:47;;;;;;;6.88;3.25;;;;;;;;;;5072719;28;20246;-55
2022/07/22 12:58:15;;;;;;;5.15;2.92;;;;;;;;;;5073920;28;20312;-54
2022/07/22 13:00:50;;;;;;;9.27;3.33;;;;;;;;;;5073289;28;20273;-54
2022/07/22 13:03:19;;;;;;;6.93;3.42;;;;;;;;;;5073947;28;20235;-55
2022/07/22 13:05:48;;;;;;;6.63;3.00;;;;;;;;;;5073630;28;20253;-56
2022/07/22 13:08:16;;;;;;;5.70;3.17;;;;;;;;;;5075795;28;20669;-55
2022/07/22 13:10:43;;;;;;;8.80;3.33;;;;;;;;;;5094461;28;20223;-56
2022/07/22 13:13:10;;;;;;;9.35;3.50;;;;;;;;;;5093998;28;20222;-54
2022/07/22 13:15:38;;;;;;;6.18;3.40;;;;;;;;;;5094175;28;20240;-55
2022/07/22 13:18:05;;;;;;;10.73;3.35;;;;;;;;;;5093502;28;20292;-56
2022/07/22 13:20:32;;;;;;;11.18;3.08;;;;;;;;;;5094389;28;20228;-57
2022/07/22 13:22:59;;;;;;;7.40;3.45;;;;;;;;;;5093964;28;20230;-56
2022/07/22 13:25:27;;;;;;;9.98;3.42;;;;;;;;;;5093770;28;20798;-55
2022/07/22 13:27:55;;;;;;;7.75;3.22;;;;;;;;;;5093818;28;20257;-56
2022/07/22 13:30:22;;;;;;;11.20;3.50;;;;;;;;;;5093891;28;20230;-54
2022/07/22 13:32:50;;;;;;;5.13;3.10;;;;;;;;;;5093272;28;20230;-57
2022/07/22 13:35:18;;;;;;;11.30;3.15;;;;;;;;;;5080568;28;20280;-57
2022/07/22 13:37:45;;;;;;;7.85;3.20;;;;;;;;;;5073388;28;20596;-56
2022/07/22 13:40:13;;;;;;;12.40;3.00;;;;;;;;;;5073885;28;20292;-56
2022/07/22 13:42:40;;;;;;;4.93;3.00;;;;;;;;;;5073390;28;20246;-55
2022/07/22 13:45:09;;;;;;;8.77;3.40;;;;;;;;;;5073415;28;20219;-56
2022/07/22 13:47:39;;;;;;;6.32;3.30;;;;;;;;;;5076167;28;20240;-56
2022/07/22 13:50:07;;;;;;;11.13;3.20;;;;;;;;;;5073446;28;20222;-56
2022/07/22 13:52:34;;;;;;;7.38;3.20;;;;;;;;;;5073915;28;20235;-57
2022/07/22 13:55:01;;;;;;;10.02;3.22;;;;;;;;;;5072447;28;20227;-55
2022/07/22 13:57:28;;;;;;;9.15;3.17;;;;;;;;;;5073642;28;20239;-57
2022/07/22 13:59:55;;;;;;;5.57;3.35;;;;;;;;;;5073609;28;20227;-55
2022/07/22 14:02:23;;;;;;;6.78;3.42;;;;;;;;;;5073263;28;20231;-56
2022/07/22 14:04:50;;;;;;;6.05;3.65;;;;;;;;;;5071714;28;20247;-53
2022/07/22 14:07:17;;;;;;;7.97;3.13;;;;;;;;;;5073529;28;20235;-54
2022/07/22 14:09:44;;;;;;;6.63;3.10;;;;;;;;;;5073403;28;20238;-56
2022/07/22 14:12:11;;;;;;;6.32;3.50;;;;;;;;;;5074111;28;20229;-55
2022/07/22 14:14:38;;;;;;;8.60;3.20;;;;;;;;;;5073677;28;20284;-49
2022/07/22 14:17:06;;;;;;;9.73;3.00;;;;;;;;;;5073451;28;20539;-46
2022/07/22 14:19:33;;;;;;;9.13;3.05;;;;;;;;;;5072933;28;20228;-55
2022/07/22 14:22:00;;;;;;;6.43;3.42;;;;;;;;;;5084004;28;20211;-56
2022/07/22 14:24:28;;;;;;;6.18;3.50;;;;;;;;;;5090353;28;20207;-55
2022/07/22 14:26:55;;;;;;;8.07;3.38;;;;;;;;;;5082045;28;20215;-55
2022/07/22 14:29:22;;;;;;;8.57;3.28;;;;;;;;;;5077905;28;20238;-55
2022/07/22 14:31:49;;;;;;;7.03;3.20;;;;;;;;;;5078023;28;20207;-53
2022/07/22 14:34:16;;;;;;;7.40;3.38;;;;;;;;;;5077806;28;20272;-56
2022/07/22 14:36:46;;;;;;;10.88;4.60;;;;;;;;;;5077511;28;20200;-55
2022/07/22 14:39:13;;;;;;;7.70;3.22;;;;;;;;;;5077686;28;20214;-56
2022/07/22 14:41:41;;;;;;;7.60;3.30;;;;;;;;;;5077779;28;20286;-55
2022/07/22 14:44:08;;;;;;;8.13;3.30;;;;;;;;;;5077632;28;20203;-52
2022/07/22 14:46:35;;;;;;;8.35;3.40;;;;;;;;;;5077422;28;20203;-49
2022/07/22 14:49:02;;;;;;;10.75;3.30;;;;;;;;;;5077451;28;20227;-45
2022/07/22 14:51:30;;;;;;;4.78;3.17;;;;;;;;;;5076970;28;20217;-48
2022/07/22 14:53:57;;;;;;;6.80;3.28;;;;;;;;;;5077345;28;20523;-53
2022/07/22 14:56:25;;;;;;;6.68;3.13;;;;;;;;;;5076819;28;20281;-54